createdAt,value
2018-12-29T00:03:33.454Z,9.45
2018-12-29T00:06:15.977Z,9.58
2018-12-29T00:08:58.668Z,10.25
2018-12-29T00:11:42.482Z,9.93
2018-12-29T00:14:25.104Z,11.12
2018-12-29T00:17:08.565Z,10.58
2018-12-29T00:19:50.539Z,11.45
2018-12-29T00:22:33.747Z,10.78
2018-12-29T00:25:16.459Z,10.55
2018-12-29T00:27:59.037Z,11.55
2018-12-29T00:30:41.962Z,11.00
2018-12-29T00:33:25.152Z,11.03
2018-12-29T00:36:07.808Z,10.78
2018-12-29T00:38:50.304Z,10.63
2018-12-29T00:41:33.023Z,11.65
2018-12-29T00:44:14.876Z,11.15
2018-12-29T00:46:57.343Z,10.98
2018-12-29T00:49:39.802Z,11.28
2018-12-29T00:52:21.757Z,11.55
2018-12-29T00:55:04.615Z,11.48
2018-12-29T00:57:47.067Z,12.15
2018-12-29T01:00:29.751Z,12.10
2018-12-29T01:03:12.389Z,12.10
2018-12-29T01:05:54.804Z,12.95
2018-12-29T01:08:37.359Z,12.10
2018-12-29T01:11:19.963Z,12.25
2018-12-29T01:14:03.433Z,12.33
2018-12-29T01:16:45.912Z,11.75
2018-12-29T01:19:28.540Z,12.73
2018-12-29T01:22:10.802Z,12.90
2018-12-29T01:24:53.487Z,12.55
2018-12-29T01:27:37.047Z,12.93
2018-12-29T01:30:19.579Z,13.10
2018-12-29T01:33:01.888Z,13.95
2018-12-29T01:35:44.593Z,12.45
2018-12-29T01:38:27.224Z,12.85
2018-12-29T01:41:09.116Z,13.30
2018-12-29T01:43:51.629Z,14.03
2018-12-29T01:46:34.424Z,13.62
2018-12-29T01:49:16.952Z,12.30
2018-12-29T01:51:59.563Z,13.58
2018-12-29T01:54:42.133Z,13.30
2018-12-29T01:57:24.735Z,13.95
2018-12-29T02:00:07.290Z,13.30
2018-12-29T02:02:49.949Z,14.30
2018-12-29T02:05:32.523Z,14.23
2018-12-29T02:08:15.056Z,14.18
2018-12-29T02:10:57.804Z,14.58
2018-12-29T02:13:40.361Z,13.38
2018-12-29T02:16:22.588Z,13.55
2018-12-29T02:19:05.302Z,13.10
2018-12-29T02:21:47.964Z,13.70
2018-12-29T02:24:30.710Z,14.18
2018-12-29T02:27:14.196Z,13.25
2018-12-29T02:29:56.872Z,14.33
2018-12-29T02:32:39.266Z,13.85
2018-12-29T02:35:21.049Z,13.45
2018-12-29T02:38:03.688Z,13.28
2018-12-29T02:40:46.303Z,13.68
2018-12-29T02:43:28.967Z,14.80
2018-12-29T02:46:11.509Z,14.05
2018-12-29T02:48:53.969Z,14.23
2018-12-29T02:51:36.772Z,15.35
2018-12-29T02:54:19.420Z,15.18
2018-12-29T02:57:01.992Z,15.85
2018-12-29T02:59:45.170Z,14.83
2018-12-29T03:02:28.039Z,15.18
2018-12-29T03:05:10.560Z,15.72
2018-12-29T03:07:52.697Z,16.48
2018-12-29T03:10:35.085Z,15.03
2018-12-29T03:13:17.142Z,15.60
2018-12-29T03:15:59.717Z,15.32
2018-12-29T03:18:42.433Z,15.95
2018-12-29T03:21:24.743Z,15.88
2018-12-29T03:24:07.356Z,15.48
2018-12-29T03:26:49.772Z,16.25
2018-12-29T03:29:32.236Z,16.80
2018-12-29T03:32:14.627Z,16.57
2018-12-29T03:34:57.407Z,17.05
2018-12-29T03:37:39.955Z,17.82
2018-12-29T03:40:22.657Z,17.45
2018-12-29T03:43:05.132Z,17.60
2018-12-29T03:45:49.261Z,17.77
2018-12-29T03:48:31.494Z,17.73
2018-12-29T03:51:13.956Z,17.98
2018-12-29T03:53:58.453Z,16.90
2018-12-29T03:56:41.199Z,17.75
2018-12-29T03:59:23.867Z,17.82
2018-12-29T04:02:06.369Z,17.35
2018-12-29T04:04:48.769Z,17.82
2018-12-29T04:07:32.093Z,17.90
2018-12-29T04:10:14.586Z,17.45
2018-12-29T04:12:57.393Z,18.30
2018-12-29T04:15:39.971Z,18.80
2018-12-29T04:18:22.429Z,17.62
2018-12-29T04:21:04.983Z,19.45
2018-12-29T04:23:47.689Z,18.50
2018-12-29T04:26:30.418Z,18.70
2018-12-29T04:29:13.124Z,18.92
2018-12-29T04:31:55.876Z,19.67
2018-12-29T04:34:38.312Z,18.10
2018-12-29T04:37:20.665Z,19.50
2018-12-29T04:40:03.109Z,18.30
2018-12-29T04:42:45.951Z,19.32
2018-12-29T04:45:28.313Z,18.87
2018-12-29T04:48:10.620Z,19.60
2018-12-29T04:50:52.613Z,19.70
2018-12-29T04:53:35.156Z,19.20
2018-12-29T04:56:17.265Z,18.40
2018-12-29T04:58:59.448Z,19.45
2018-12-29T05:01:41.379Z,18.30
2018-12-29T05:04:23.804Z,19.73
2018-12-29T05:07:06.124Z,18.73
2018-12-29T05:09:48.644Z,18.80
2018-12-29T05:12:31.511Z,18.77
2018-12-29T05:15:13.813Z,18.12
2018-12-29T05:17:56.433Z,18.60
2018-12-29T05:20:38.883Z,18.20
2018-12-29T05:23:21.414Z,18.85
2018-12-29T05:26:02.981Z,18.00
2018-12-29T05:28:44.742Z,18.25
2018-12-29T05:31:27.235Z,17.75
2018-12-29T05:34:09.653Z,16.60
2018-12-29T05:36:52.139Z,18.20
2018-12-29T05:39:34.268Z,17.37
2018-12-29T05:42:16.792Z,17.50
2018-12-29T05:45:03.787Z,17.70
2018-12-29T05:47:45.659Z,17.92
2018-12-29T05:50:27.998Z,17.95
2018-12-29T05:53:10.488Z,17.60
2018-12-29T05:55:54.145Z,17.12
2018-12-29T05:58:36.780Z,17.25
2018-12-29T06:01:19.348Z,17.37
2018-12-29T06:04:01.625Z,16.12
2018-12-29T06:06:44.114Z,15.05
2018-12-29T06:09:26.296Z,14.15
2018-12-29T06:12:09.058Z,15.68
2018-12-29T06:14:51.800Z,14.63
2018-12-29T06:17:33.948Z,12.85
2018-12-29T06:20:16.672Z,13.18
2018-12-29T06:22:59.299Z,12.13
2018-12-29T06:25:42.044Z,11.03
2018-12-29T06:28:24.475Z,12.00
2018-12-29T06:31:07.020Z,12.00
2018-12-29T06:33:49.548Z,11.97
2018-12-29T06:36:32.313Z,12.05
2018-12-29T06:39:18.847Z,14.28
2018-12-29T06:42:01.613Z,13.00
2018-12-29T06:44:44.240Z,13.15
2018-12-29T06:47:26.583Z,12.90
2018-12-29T06:50:10.884Z,12.23
2018-12-29T06:52:53.381Z,13.55
2018-12-29T06:55:36.995Z,13.43
2018-12-29T06:58:19.743Z,11.45
2018-12-29T07:01:02.141Z,13.25
2018-12-29T07:03:46.712Z,13.28
2018-12-29T07:06:30.799Z,12.40
2018-12-29T07:09:13.343Z,13.00
2018-12-29T07:11:56.084Z,13.60
2018-12-29T07:14:38.734Z,12.33
2018-12-29T07:17:21.310Z,12.33
2018-12-29T07:20:03.880Z,12.15
2018-12-29T07:22:46.651Z,12.37
2018-12-29T07:25:29.345Z,11.57
2018-12-29T07:28:12.170Z,13.32
2018-12-29T07:30:54.748Z,12.13
2018-12-29T07:33:37.471Z,12.70
2018-12-29T07:36:19.968Z,11.93
2018-12-29T07:39:02.762Z,12.23
2018-12-29T07:41:45.315Z,12.28
2018-12-29T07:44:27.173Z,12.18
2018-12-29T07:47:09.712Z,11.97
2018-12-29T07:49:52.437Z,12.05
2018-12-29T07:52:34.297Z,10.98
2018-12-29T07:55:17.204Z,11.88
2018-12-29T07:57:59.461Z,11.95
2018-12-29T08:00:41.987Z,12.20
2018-12-29T08:03:24.447Z,9.78
2018-12-29T08:06:07.177Z,10.10
2018-12-29T08:08:49.850Z,11.28
2018-12-29T08:11:32.467Z,11.10
2018-12-29T08:14:15.124Z,11.85
2018-12-29T08:16:57.703Z,12.28
2018-12-29T08:19:40.301Z,12.47
2018-12-29T08:22:24.070Z,12.10
2018-12-29T08:25:06.374Z,12.50
2018-12-29T08:27:49.096Z,12.73
2018-12-29T08:30:31.550Z,12.82
2018-12-29T08:33:14.030Z,12.75
2018-12-29T08:35:56.490Z,12.43
2018-12-29T08:38:39.256Z,13.10
2018-12-29T08:41:21.808Z,12.45
2018-12-29T08:44:04.256Z,12.43
2018-12-29T08:46:46.556Z,12.00
2018-12-29T08:49:28.667Z,12.05
2018-12-29T08:52:10.950Z,12.33
2018-12-29T08:54:53.448Z,10.85
2018-12-29T08:57:36.012Z,11.40
2018-12-29T09:00:18.604Z,11.15
2018-12-29T09:03:02.041Z,11.40
2018-12-29T09:05:44.691Z,12.23
2018-12-29T09:08:27.132Z,10.10
2018-12-29T09:11:09.825Z,9.70
2018-12-29T09:13:52.306Z,10.32
2018-12-29T09:16:34.851Z,8.98
2018-12-29T09:19:17.094Z,8.45
2018-12-29T09:21:59.748Z,9.53
2018-12-29T09:24:42.351Z,8.73
2018-12-29T09:27:25.120Z,8.48
2018-12-29T09:30:07.551Z,8.73
2018-12-29T09:32:50.143Z,8.00
2018-12-29T09:35:32.751Z,8.68
2018-12-29T09:38:15.195Z,8.23
2018-12-29T09:40:57.795Z,7.62
2018-12-29T09:43:40.277Z,8.20
2018-12-29T09:46:22.452Z,7.72
2018-12-29T09:49:05.038Z,7.85
2018-12-29T09:51:47.644Z,8.33
2018-12-29T09:54:29.940Z,7.40
2018-12-29T09:57:12.583Z,8.30
2018-12-29T09:59:55.309Z,7.62
2018-12-29T10:02:37.736Z,8.08
2018-12-29T10:05:20.574Z,7.80
2018-12-29T10:08:04.425Z,7.67
2018-12-29T10:10:46.624Z,7.58
2018-12-29T10:13:29.228Z,6.85
2018-12-29T10:16:11.876Z,6.97
2018-12-29T10:18:54.266Z,7.60
2018-12-29T10:21:42.185Z,6.12
2018-12-29T10:24:24.792Z,6.53
2018-12-29T10:27:07.528Z,6.17
2018-12-29T10:29:49.645Z,6.55
2018-12-29T10:32:31.676Z,6.05
2018-12-29T10:35:14.327Z,6.45
2018-12-29T10:37:57.131Z,6.10
2018-12-29T10:40:39.754Z,6.42
2018-12-29T10:43:22.303Z,6.10
2018-12-29T10:46:05.508Z,5.87
2018-12-29T10:48:48.227Z,6.17
2018-12-29T10:51:31.748Z,5.67
2018-12-29T10:54:14.201Z,5.60
2018-12-29T10:56:56.003Z,5.42
2018-12-29T10:59:38.169Z,5.33
2018-12-29T11:02:20.507Z,4.75
2018-12-29T11:05:03.236Z,4.40
2018-12-29T11:07:45.751Z,4.60
2018-12-29T11:10:28.651Z,4.87
2018-12-29T11:13:10.699Z,4.72
2018-12-29T11:15:53.552Z,4.90
2018-12-29T11:18:36.057Z,5.10
2018-12-29T11:21:18.416Z,4.62
2018-12-29T11:24:01.232Z,5.47
2018-12-29T11:26:43.907Z,5.45
2018-12-29T11:29:26.341Z,5.35
2018-12-29T11:32:09.019Z,4.75
2018-12-29T11:34:51.519Z,4.90
2018-12-29T11:37:34.440Z,4.97
2018-12-29T11:40:16.961Z,5.70
2018-12-29T11:42:59.663Z,5.55
2018-12-29T11:45:42.145Z,4.95
2018-12-29T11:48:24.724Z,4.83
2018-12-29T11:51:06.945Z,5.03
2018-12-29T11:53:49.539Z,4.87
2018-12-29T11:56:32.243Z,5.55
2018-12-29T11:59:14.843Z,4.90
2018-12-29T12:01:57.571Z,4.50
2018-12-29T12:04:40.140Z,5.70
2018-12-29T12:07:22.751Z,5.90
2018-12-29T12:10:05.608Z,5.72
2018-12-29T12:12:48.243Z,5.90
2018-12-29T12:15:31.956Z,6.45
2018-12-29T12:18:13.875Z,6.80
2018-12-29T12:20:56.161Z,6.83
2018-12-29T12:23:38.627Z,8.13
2018-12-29T12:26:21.306Z,6.92
2018-12-29T12:29:03.276Z,6.72
2018-12-29T12:31:45.976Z,6.65
2018-12-29T12:34:28.916Z,6.62
2018-12-29T12:37:11.931Z,6.87
2018-12-29T12:39:54.448Z,6.97
2018-12-29T12:42:36.859Z,6.87
2018-12-29T12:45:18.709Z,6.35
2018-12-29T12:48:05.017Z,6.80
2018-12-29T12:50:44.628Z,6.62
2018-12-29T12:53:26.796Z,6.40
2018-12-29T12:56:09.527Z,5.47
2018-12-29T12:58:52.188Z,5.60
2018-12-29T13:01:35.208Z,7.03
2018-12-29T13:04:18.026Z,6.85
2018-12-29T13:06:59.843Z,7.70
2018-12-29T13:09:42.671Z,6.90
2018-12-29T13:12:25.613Z,7.03
2018-12-29T13:15:08.353Z,6.53
2018-12-29T13:17:50.632Z,6.33
2018-12-29T13:20:33.284Z,6.17
2018-12-29T13:23:16.015Z,5.85
2018-12-29T13:25:58.256Z,6.33
2018-12-29T13:28:40.928Z,6.50
2018-12-29T13:31:23.475Z,6.05
2018-12-29T13:34:06.213Z,6.30
2018-12-29T13:36:48.703Z,6.03
2018-12-29T13:39:30.644Z,6.40
2018-12-29T13:42:19.295Z,5.78
2018-12-29T13:45:02.648Z,6.10
2018-12-29T13:47:46.196Z,6.25
2018-12-29T13:50:30.812Z,5.40
2018-12-29T13:53:13.477Z,8.03
2018-12-29T13:55:55.891Z,6.12
2018-12-29T13:58:38.308Z,13.05
2018-12-29T14:01:22.061Z,15.70
2018-12-29T14:04:04.564Z,8.33
2018-12-29T14:06:47.163Z,31.75
2018-12-29T14:09:29.794Z,26.45
2018-12-29T14:12:12.164Z,13.10
2018-12-29T14:14:55.195Z,26.80
2018-12-29T14:17:38.195Z,32.03
2018-12-29T14:20:21.024Z,9.65
2018-12-29T14:23:03.587Z,13.75
2018-12-29T14:25:46.494Z,28.47
2018-12-29T14:28:38.205Z,9.25
2018-12-29T14:31:33.873Z,8.43
2018-12-29T14:34:16.799Z,14.28
2018-12-29T14:36:58.668Z,6.42
2018-12-29T14:39:41.315Z,7.35
2018-12-29T14:42:23.571Z,9.00
2018-12-29T14:45:06.394Z,11.35
2018-12-29T14:47:49.029Z,9.78
2018-12-29T14:50:31.632Z,13.15
2018-12-29T14:53:13.650Z,5.80
2018-12-29T14:55:56.273Z,5.42
2018-12-29T14:58:38.929Z,7.75
2018-12-29T15:01:21.456Z,5.12
2018-12-29T15:04:04.107Z,5.67
2018-12-29T15:06:46.635Z,6.25
2018-12-29T15:09:29.491Z,6.05
2018-12-29T15:12:12.198Z,8.78
2018-12-29T15:14:54.523Z,7.60
2018-12-29T15:17:37.102Z,5.42
2018-12-29T15:20:21.068Z,5.22
2018-12-29T15:23:03.636Z,7.03
2018-12-29T15:25:46.264Z,5.62
2018-12-29T15:28:28.727Z,4.70
2018-12-29T15:31:11.301Z,6.12
2018-12-29T15:33:53.733Z,5.05
2018-12-29T15:36:36.561Z,4.15
2018-12-29T15:39:19.218Z,4.05
2018-12-29T15:42:02.091Z,3.98
2018-12-29T15:44:44.591Z,3.67
2018-12-29T15:47:27.287Z,3.45
2018-12-29T15:50:09.688Z,3.60
2018-12-29T15:52:52.283Z,3.42
2018-12-29T15:55:34.540Z,3.22
2018-12-29T15:58:17.106Z,3.40
2018-12-29T16:00:59.700Z,3.75
2018-12-29T16:03:42.392Z,3.05
2018-12-29T16:06:26.087Z,3.22
2018-12-29T16:09:08.367Z,3.33
2018-12-29T16:11:51.450Z,3.15
2018-12-29T16:14:35.495Z,3.58
2018-12-29T16:17:16.922Z,3.33
2018-12-29T16:19:59.946Z,3.87
2018-12-29T16:22:41.722Z,3.47
2018-12-29T16:25:24.297Z,3.58
2018-12-29T16:28:06.610Z,3.70
2018-12-29T16:30:49.076Z,3.65
2018-12-29T16:33:31.636Z,3.87
2018-12-29T16:36:14.107Z,6.12
2018-12-29T16:38:56.505Z,4.17
2018-12-29T16:41:39.158Z,4.25
2018-12-29T16:44:21.585Z,4.72
2018-12-29T16:47:04.323Z,4.28
2018-12-29T16:49:47.441Z,4.67
2018-12-29T16:52:30.367Z,3.77
2018-12-29T16:55:13.298Z,4.25
2018-12-29T16:57:55.243Z,4.17
2018-12-29T17:00:37.895Z,4.47
2018-12-29T17:03:20.436Z,3.70
2018-12-29T17:06:03.200Z,4.20
2018-12-29T17:08:45.990Z,3.37
2018-12-29T17:11:28.464Z,4.72
2018-12-29T17:14:12.799Z,4.00
2018-12-29T17:16:55.591Z,4.20
2018-12-29T17:19:38.238Z,4.17
2018-12-29T17:22:20.168Z,4.60
2018-12-29T17:25:02.721Z,3.72
2018-12-29T17:27:45.129Z,4.78
2018-12-29T17:30:27.868Z,5.17
2018-12-29T17:33:10.527Z,4.40
2018-12-29T17:35:54.344Z,5.10
2018-12-29T17:38:37.123Z,4.70
2018-12-29T17:41:19.775Z,4.97
2018-12-29T17:44:02.420Z,5.05
2018-12-29T17:46:46.169Z,4.75
2018-12-29T17:49:28.875Z,4.72
2018-12-29T17:52:11.160Z,4.62
2018-12-29T17:54:53.605Z,6.55
2018-12-29T17:57:36.208Z,5.42
2018-12-29T18:00:18.845Z,6.20
2018-12-29T18:03:01.236Z,6.60
2018-12-29T18:05:47.903Z,5.85
2018-12-29T18:08:30.605Z,6.05
2018-12-29T18:11:13.177Z,4.35
2018-12-29T18:16:55.991Z,4.03
2018-12-29T18:19:38.551Z,5.05
2018-12-29T18:22:20.907Z,4.17
2018-12-29T18:25:03.431Z,4.87
2018-12-29T18:27:45.949Z,4.58
2018-12-29T18:30:29.060Z,4.40
2018-12-29T18:33:11.916Z,4.55
2018-12-29T18:35:54.237Z,4.08
2018-12-29T18:38:37.428Z,3.58
2018-12-29T18:41:20.090Z,3.47
2018-12-29T18:44:02.566Z,3.47
2018-12-29T18:46:44.947Z,3.20
2018-12-29T18:49:27.759Z,3.83
2018-12-29T18:52:10.132Z,3.98
2018-12-29T18:54:52.651Z,5.10
2018-12-29T18:57:36.192Z,11.57
2018-12-29T19:00:19.688Z,7.10
2018-12-29T19:03:03.104Z,9.00
2018-12-29T19:05:45.709Z,5.40
2018-12-29T19:08:29.003Z,5.08
2018-12-29T19:11:15.583Z,6.70
2018-12-29T19:14:04.446Z,6.45
2018-12-29T19:16:46.580Z,5.20
2018-12-29T19:19:29.078Z,4.67
2018-12-29T19:22:11.731Z,6.22
2018-12-29T19:24:53.968Z,4.37
2018-12-29T19:27:40.815Z,4.25
2018-12-29T19:30:23.656Z,4.33
2018-12-29T19:33:06.343Z,4.75
2018-12-29T19:35:48.951Z,3.95
2018-12-29T19:38:31.964Z,4.00
2018-12-29T19:41:14.495Z,4.35
2018-12-29T19:43:57.240Z,4.65
2018-12-29T19:46:39.805Z,5.30
2018-12-29T19:49:22.587Z,5.87
2018-12-29T19:52:05.047Z,5.40
2018-12-29T19:54:47.351Z,11.45
2018-12-29T19:57:30.445Z,7.97
2018-12-29T20:00:13.124Z,9.95
2018-12-29T20:02:56.035Z,5.10
2018-12-29T20:05:43.727Z,5.90
2018-12-29T20:08:26.080Z,4.72
2018-12-29T20:11:09.383Z,4.40
2018-12-29T20:13:51.925Z,4.33
2018-12-29T20:16:34.542Z,4.55
2018-12-29T20:19:16.823Z,5.10
2018-12-29T20:21:59.579Z,4.37
2018-12-29T20:24:41.688Z,5.40
2018-12-29T20:27:23.893Z,4.92
2018-12-29T20:30:06.682Z,4.22
2018-12-29T20:32:48.600Z,4.83
2018-12-29T20:35:30.470Z,4.78
2018-12-29T20:38:13.131Z,5.33
2018-12-29T20:40:55.723Z,4.85
2018-12-29T20:43:38.464Z,4.50
2018-12-29T20:46:21.330Z,5.03
2018-12-29T20:49:05.001Z,5.45
2018-12-29T20:51:48.182Z,4.75
2018-12-29T20:54:32.773Z,5.12
2018-12-29T20:57:15.117Z,5.08
2018-12-29T20:59:57.623Z,5.17
2018-12-29T21:02:40.279Z,5.25
2018-12-29T21:05:22.462Z,5.92
2018-12-29T21:08:04.683Z,4.35
2018-12-29T21:10:49.154Z,4.45
2018-12-29T21:13:31.850Z,5.08
2018-12-29T21:16:14.715Z,4.90
2018-12-29T21:18:57.418Z,5.40
2018-12-29T21:21:40.361Z,5.05
2018-12-29T21:24:22.169Z,5.08
2018-12-29T21:27:05.507Z,5.03
2018-12-29T21:29:48.212Z,4.95
2018-12-29T21:32:30.966Z,5.58
2018-12-29T21:35:13.829Z,5.55
2018-12-29T21:37:56.086Z,5.12
2018-12-29T21:40:38.902Z,5.15
2018-12-29T21:43:21.639Z,5.00
2018-12-29T21:46:03.540Z,4.75
2018-12-29T21:48:46.359Z,4.45
2018-12-29T21:51:28.805Z,4.92
2018-12-29T21:54:11.526Z,5.10
2018-12-29T21:56:55.159Z,4.35
2018-12-29T21:59:37.583Z,5.28
2018-12-29T22:02:20.293Z,4.67
2018-12-29T22:05:02.718Z,4.20
2018-12-29T22:07:44.566Z,4.60
2018-12-29T22:10:26.447Z,5.40
2018-12-29T22:13:09.083Z,4.97
2018-12-29T22:15:51.882Z,5.42
2018-12-29T22:18:34.667Z,4.85
2018-12-29T22:21:17.466Z,4.80
2018-12-29T22:23:59.888Z,3.62
2018-12-29T22:26:42.463Z,4.03
2018-12-29T22:29:25.271Z,4.08
2018-12-29T22:32:07.671Z,4.30
2018-12-29T22:34:50.287Z,4.28
2018-12-29T22:37:32.852Z,4.45
2018-12-29T22:40:15.756Z,4.33
2018-12-29T22:42:58.203Z,4.40
2018-12-29T22:45:40.599Z,5.05
2018-12-29T22:48:22.574Z,3.65
2018-12-29T22:51:06.267Z,3.92
2018-12-29T22:53:48.683Z,4.28
2018-12-29T22:56:31.136Z,4.08
2018-12-29T22:59:13.668Z,4.20
2018-12-29T23:01:56.152Z,4.58
2018-12-29T23:04:38.701Z,4.50
2018-12-29T23:07:20.744Z,15.55
2018-12-29T23:10:03.552Z,4.67
2018-12-29T23:12:46.312Z,5.12
2018-12-29T23:15:28.519Z,4.50
2018-12-29T23:18:11.180Z,4.97
2018-12-29T23:20:53.831Z,5.08
2018-12-29T23:23:36.131Z,3.67
2018-12-29T23:26:18.835Z,4.12
2018-12-29T23:29:01.436Z,4.40
2018-12-29T23:31:43.668Z,4.03
2018-12-29T23:34:26.356Z,3.83
2018-12-29T23:37:08.383Z,5.40
2018-12-29T23:39:51.124Z,4.37
2018-12-29T23:42:33.901Z,5.22
2018-12-29T23:45:16.381Z,4.22
2018-12-29T23:47:58.815Z,3.62
2018-12-29T23:50:41.171Z,4.78
2018-12-29T23:53:23.680Z,4.35
2018-12-29T23:56:06.548Z,4.03
2018-12-29T23:58:50.090Z,4.62
